Plymouth, California
Current Conditions -  °F | °C
As of 11:55 PM on Thursday 30 Oct 2014 (Local Time) from KPVF Reporting Station
Scattered Clouds Scattered Clouds  
Wind Chill: 59°   Ceiling: Unl
Heat Index: 59°   Visibility: 10mi
Dew Point: 37°   Wind: 6mph
Humidity: 45%   Direction: 220°SW
Pressure: 29.94"   Gusts: NA
Location:  38.48°N, 120.84°W
Report Text: KPVF 310655Z AUTO 22005KT 10SM SCT033 SCT042 15/03 A2994 RMK AO1
Loading
Personal Weather Stations






























Interactive Weather Map
Tropical Storm Tracking
New forecast layout! Learn more

10-Day Weather Forecast

Advertisements
Track Severe Weather on mobile